Spirit — WDC2731 — position and weather

sailwx.info

Track history (hours):
 
Tides and Currents Weather Stations Pressure Air Temp Water Temp Dewpoint Dewpoint Depression Visibility Wind Speed Wind Dir Waves Ship Positions

Spirit

Owner: Kirby Inland Marine, LP, Houston, TX. More information available from US FCC via Universal Licensing System and Coast Guard Vessel Documentation Center.

Last reported at 2017-Nov-19 21:40 UTC. Time now 2017-Nov-22 20:51 UTC.
Position N 29°46' W 095°05'.

Length 81 m; draft 2.6 m.

Type: . MMSI: 366996910.

Date/timePositionNaut miles runAvg speedWind from/ knotsBaromVisibWave heightAir tempDewpointWater temp
2017-Nov-19 21:40N 29°46' W 095°05'1 0.8
2017-Nov-19 20:00N 29°45' W 095°06'3 5.3
2017-Nov-19 19:28N 29°44' W 095°09'3 1.1
2017-Nov-19 16:19N 29°43' W 095°13'2 4.7
2017-Nov-19 15:53N 29°45' W 095°11'9 0.3
2017-Nov-18 13:43N 29°44' W 095°01'0 0.2
2017-Nov-18 13:24N 29°44' W 095°01'1 1.8
2017-Nov-18 12:58N 29°44' W 095°02'4 1.1
2017-Nov-18 09:23N 29°44' W 095°07'2 5.1
2017-Nov-18 08:57N 29°44' W 095°09'1 0.4
2017-Nov-18 05:44N 29°44' W 095°08'0 0.0
2017-Nov-18 05:29N 29°44' W 095°08'0 0.0
2017-Nov-18 05:00N 29°44' W 095°08'3 0.2
2017-Nov-17 17:32N 29°46' W 095°05'0 1.0
2017-Nov-17 17:30N 29°46' W 095°05'2 3.5
2017-Nov-17 17:00N 29°44' W 095°06'2 3.2
2017-Nov-17 16:21N 29°44' W 095°09'1 3.7
2017-Nov-17 16:00N 29°45' W 095°10'3 3.6
2017-Nov-17 15:15N 29°44' W 095°13'1 3.7
2017-Nov-17 15:00N 29°43' W 095°14'0 0.1
2017-Nov-17 11:16N 29°43' W 095°14'1 4.8
2017-Nov-17 11:00N 29°44' W 095°13'3 4.9
2017-Nov-17 10:28N 29°45' W 095°10'2 1.4
2017-Nov-17 08:45N 29°44' W 095°08'1 3.1
2017-Nov-17 08:21N 29°45' W 095°06'2 0.8
2017-Nov-17 05:50N 29°46' W 095°04'2 4.9
2017-Nov-17 05:29N 29°44' W 095°03'2 4.3
2017-Nov-17 04:56N 29°43' W 095°01'2 4.8
2017-Nov-17 04:30N 29°41' W 094°59'3 5.2
2017-Nov-17 04:00N 29°39' W 094°58'2 4.2
2017-Nov-17 03:30N 29°37' W 094°58'2 4.7
2017-Nov-17 03:00N 29°37' W 095°01'1 1.7
2017-Nov-17 02:30N 29°37' W 095°02'0 0.0
2017-Nov-17 02:00N 29°37' W 095°02'0 0.0
2017-Nov-17 01:30N 29°37' W 095°02'0 0.0
2017-Nov-17 01:00N 29°37' W 095°02'0 0.0
2017-Nov-17 00:30N 29°37' W 095°02'0 0.0
2017-Nov-17 00:00N 29°37' W 095°02'0 0.0
2017-Nov-16 23:30N 29°37' W 095°02'0 0.0
2017-Nov-16 23:00N 29°37' W 095°02'0 0.0
2017-Nov-16 22:30N 29°37' W 095°02'0 0.0
2017-Nov-16 22:00N 29°37' W 095°02'0 0.0
2017-Nov-16 21:30N 29°37' W 095°02'0 0.0
2017-Nov-16 21:00N 29°37' W 095°02'0 0.0
2017-Nov-16 20:30N 29°37' W 095°02'0 0.0
2017-Nov-16 20:00N 29°37' W 095°02'0 0.0
2017-Nov-16 19:30N 29°37' W 095°02'0 0.0
2017-Nov-16 19:00N 29°37' W 095°02'0 0.0
2017-Nov-16 18:30N 29°37' W 095°02'0 0.0
2017-Nov-16 18:00N 29°37' W 095°02'0 0.0
2017-Nov-16 17:29N 29°37' W 095°02'0 0.0
2017-Nov-16 17:00N 29°37' W 095°02'0 0.2
2017-Nov-16 16:30N 29°37' W 095°01'1 3.0
2017-Nov-16 16:00N 29°37' W 094°60'2 3.8
2017-Nov-16 15:30N 29°38' W 094°58'3 6.1
2017-Nov-16 15:00N 29°41' W 094°59'3 5.6
2017-Nov-16 14:30N 29°43' W 095°01'3 5.3
2017-Nov-16 13:59N 29°44' W 095°04'2 0.3
2017-Nov-16 06:55N 29°46' W 095°05'1 2.9
2017-Nov-16 06:30N 29°45' W 095°06'1 1.5
2017-Nov-16 05:58N 29°46' W 095°07'1 0.9
2017-Nov-16 04:37N 29°45' W 095°06'1 5.1
2017-Nov-16 04:26N 29°44' W 095°07'2 4.8
2017-Nov-16 04:00N 29°45' W 095°10'3 4.3
2017-Nov-16 03:23N 29°44' W 095°13'1 0.5
2017-Nov-16 01:02N 29°43' W 095°14'0 0.8
2017-Nov-16 00:58N 29°43' W 095°14'2 4.6
2017-Nov-16 00:30N 29°44' W 095°12'3 6.6
2017-Nov-16 00:00N 29°44' W 095°08'5 2.3
2017-Nov-15 21:58N 29°47' W 095°04'3 0.2
2017-Nov-15 09:27N 29°45' W 095°06'1 2.7
2017-Nov-15 09:00N 29°46' W 095°05'0 0.1
2017-Nov-15 05:46N 29°46' W 095°05'1 2.4
2017-Nov-15 05:12N 29°45' W 095°06'0 0.6
2017-Nov-15 04:56N 29°45' W 095°06'1 1.3
2017-Nov-15 04:23N 29°45' W 095°06'1 2.0
2017-Nov-15 04:00N 29°46' W 095°05'5 1.2
2017-Nov-14 23:47N 29°42' W 095°01'2 5.9
2017-Nov-14 23:30N 29°42' W 094°59'3 5.5
2017-Nov-14 23:00N 29°39' W 094°58'2 4.5
2017-Nov-14 22:30N 29°37' W 094°58'2 4.9
2017-Nov-14 22:00N 29°37' W 095°01'1 1.3
2017-Nov-14 21:30N 29°37' W 095°02'0 0.0
2017-Nov-14 21:00N 29°37' W 095°02'0 0.0
2017-Nov-14 20:30N 29°37' W 095°02'0 0.0
2017-Nov-14 20:00N 29°37' W 095°02'0 0.0
2017-Nov-14 19:30N 29°37' W 095°02'0 0.0
2017-Nov-14 19:00N 29°37' W 095°02'0 0.0
2017-Nov-14 18:27N 29°37' W 095°02'0 0.0
2017-Nov-14 18:00N 29°37' W 095°02'0 0.0
2017-Nov-14 17:30N 29°37' W 095°02'0 0.0
2017-Nov-14 17:00N 29°37' W 095°02'0 0.0
2017-Nov-14 16:30N 29°37' W 095°02'0 0.2
2017-Nov-14 16:00N 29°37' W 095°01'0 0.2
2017-Nov-14 15:30N 29°37' W 095°02'0 0.0
2017-Nov-14 15:00N 29°37' W 095°02'0 0.0
2017-Nov-14 14:30N 29°37' W 095°02'0 0.0
2017-Nov-14 14:00N 29°37' W 095°02'0 0.0
2017-Nov-14 13:30N 29°37' W 095°02'0 0.1
2017-Nov-14 13:00N 29°37' W 095°01'2 4.3
2017-Nov-14 12:30N 29°37' W 094°59'2 3.7
2017-Nov-14 12:00N 29°38' W 094°58'3 5.9
2017-Nov-14 11:30N 29°41' W 094°59'3 5.3
2017-Nov-14 11:00N 29°43' W 095°01'3 5.3
2017-Nov-14 10:30N 29°45' W 095°04'2 1.7
2017-Nov-14 09:10N 29°46' W 095°06'0 0.0
2017-Nov-14 08:57N 29°46' W 095°06'1 1.9
2017-Nov-14 08:24N 29°46' W 095°05'1 0.9
2017-Nov-14 07:21N 29°45' W 095°06'1 0.3
2017-Nov-14 05:06N 29°46' W 095°06'0 3.3
2017-Nov-14 04:59N 29°46' W 095°06'0 0.7
2017-Nov-14 04:28N 29°45' W 095°06'0 0.0
2017-Nov-14 03:59N 29°45' W 095°06'1 0.6
2017-Nov-14 03:09N 29°46' W 095°05'3 2.1
2017-Nov-14 01:57N 29°44' W 095°03'2 3.4
2017-Nov-14 01:28N 29°44' W 095°01'1 3.2
2017-Nov-14 01:00N 29°42' W 095°01'2 3.1
2017-Nov-14 00:30N 29°43' W 095°03'4 0.2
2017-Nov-13 00:26N 29°46' W 095°06'1 0.1
2017-Nov-12 19:45N 29°45' W 095°06'0 0.0
2017-Nov-12 19:27N 29°45' W 095°06'0 0.0
2017-Nov-12 18:58N 29°45' W 095°06'0 0.0
2017-Nov-12 18:22N 29°45' W 095°06'0 0.0
2017-Nov-12 17:59N 29°45' W 095°06'0 0.0
2017-Nov-12 17:29N 29°45' W 095°06'0 0.0
2017-Nov-12 17:00N 29°45' W 095°06'0 0.0
2017-Nov-12 15:59N 29°45' W 095°06'0 0.1
2017-Nov-12 14:45N 29°45' W 095°06'0 0.0
2017-Nov-12 14:29N 29°45' W 095°06'0 0.0
2017-Nov-12 13:59N 29°45' W 095°06'0 0.0
2017-Nov-12 13:30N 29°45' W 095°06'1 1.0
2017-Nov-12 12:40N 29°45' W 095°06'0 0.8
2017-Nov-12 12:21N 29°45' W 095°06'1 3.1
2017-Nov-12 11:59N 29°46' W 095°05'0 0.3
2017-Nov-12 11:20N 29°46' W 095°05'0 0.0
2017-Nov-12 10:51N 29°46' W 095°05'1 2.7
2017-Nov-12 10:23N 29°45' W 095°06'0 0.2
2017-Nov-12 09:17N 29°45' W 095°06'1 0.8
2017-Nov-12 08:12N 29°46' W 095°06'0 0.0
2017-Nov-12 07:56N 29°46' W 095°06'0 0.0
2017-Nov-12 07:19N 29°46' W 095°06'1 3.1
2017-Nov-12 06:54N 29°46' W 095°04'4 6.0
2017-Nov-12 06:17N 29°43' W 095°01'2 5.7
2017-Nov-12 05:59N 29°42' W 094°60'3 6.5
2017-Nov-12 05:30N 29°39' W 094°58'2 4.5
2017-Nov-12 05:00N 29°37' W 094°59'2 5.0
2017-Nov-12 04:30N 29°37' W 095°01'0 0.3
2017-Nov-12 04:00N 29°37' W 095°01'0 0.0
2017-Nov-12 03:30N 29°37' W 095°01'0 0.0
2017-Nov-12 03:00N 29°37' W 095°01'0 0.0
2017-Nov-12 02:30N 29°37' W 095°01'0 0.0
2017-Nov-12 02:00N 29°37' W 095°01'0 0.0
2017-Nov-12 01:30N 29°37' W 095°01'0 0.0
2017-Nov-12 01:00N 29°37' W 095°01'0 0.0
2017-Nov-12 00:30N 29°37' W 095°01'0 0.0
2017-Nov-12 00:00N 29°37' W 095°01'0 0.0
2017-Nov-11 23:30N 29°37' W 095°01'0 0.0
2017-Nov-11 23:00N 29°37' W 095°01'0 0.0
2017-Nov-11 22:30N 29°37' W 095°01'0 0.0
2017-Nov-11 22:00N 29°37' W 095°01'0 0.0
2017-Nov-11 21:30N 29°37' W 095°01'0 0.0
2017-Nov-11 21:00N 29°37' W 095°01'0 0.0
2017-Nov-11 20:30N 29°37' W 095°01'0 0.0
2017-Nov-11 20:00N 29°37' W 095°01'0 0.0
2017-Nov-11 19:30N 29°37' W 095°01'0 0.0
2017-Nov-11 19:00N 29°37' W 095°01'0 0.0
2017-Nov-11 18:30N 29°37' W 095°01'0 0.0
2017-Nov-11 18:00N 29°37' W 095°01'0 0.0
2017-Nov-11 17:30N 29°37' W 095°01'0 0.0
2017-Nov-11 17:00N 29°37' W 095°01'0 0.0
2017-Nov-11 16:30N 29°37' W 095°01'0 0.0
2017-Nov-11 16:00N 29°37' W 095°01'0 0.0
2017-Nov-11 15:30N 29°37' W 095°01'0 0.0
2017-Nov-11 15:00N 29°37' W 095°01'0 0.0
2017-Nov-11 14:30N 29°37' W 095°01'0 0.0
2017-Nov-11 14:00N 29°37' W 095°01'0 0.0
2017-Nov-11 13:31N 29°37' W 095°01'0 0.0
2017-Nov-11 13:00N 29°37' W 095°01'1 2.8
2017-Nov-11 12:30N 29°37' W 094°60'2 4.8
2017-Nov-11 12:01N 29°39' W 094°58'4 7.5
2017-Nov-11 11:30N 29°42' W 095°00'3 6.9
2017-Nov-11 11:00N 29°44' W 095°03'3 5.7
2017-Nov-11 10:27N 29°47' W 095°04'2 0.7
2017-Nov-11 08:00N 29°46' W 095°04'3 5.6
2017-Nov-11 07:26N 29°44' W 095°01'2 4.8
2017-Nov-11 06:57N 29°42' W 094°60'3 5.6
2017-Nov-11 06:30N 29°40' W 094°58'3 5.5
2017-Nov-11 06:00N 29°37' W 094°57'2 4.8
2017-Nov-11 05:30N 29°37' W 095°00'1 2.2
2017-Nov-11 05:00N 29°37' W 095°01'0 0.0
2017-Nov-11 04:30N 29°37' W 095°01'0 0.0
2017-Nov-11 04:00N 29°37' W 095°01'0 0.0
2017-Nov-11 03:30N 29°37' W 095°01'0 0.1
2017-Nov-11 03:00N 29°37' W 095°02'0 0.0
2017-Nov-11 02:30N 29°37' W 095°02'0 0.0
2017-Nov-11 02:00N 29°37' W 095°02'0 0.0
2017-Nov-11 01:30N 29°37' W 095°02'0 0.0
2017-Nov-11 01:00N 29°37' W 095°02'0 0.0
2017-Nov-11 00:30N 29°37' W 095°02'0 0.0
2017-Nov-11 00:00N 29°37' W 095°02'0 0.0
2017-Nov-10 23:30N 29°37' W 095°02'0 0.0
2017-Nov-10 23:00N 29°37' W 095°02'0 0.0
2017-Nov-10 22:30N 29°37' W 095°02'0 0.0
2017-Nov-10 21:59N 29°37' W 095°02'0 0.0
2017-Nov-10 21:31N 29°37' W 095°02'0 0.0
2017-Nov-10 21:00N 29°37' W 095°02'0 0.0
2017-Nov-10 20:30N 29°37' W 095°02'0 0.0
2017-Nov-10 20:00N 29°37' W 095°02'0 0.0
2017-Nov-10 19:30N 29°37' W 095°02'0 0.0
2017-Nov-10 19:00N 29°37' W 095°02'0 0.0
2017-Nov-10 18:30N 29°37' W 095°02'0 0.0
2017-Nov-10 18:01N 29°37' W 095°02'0 0.0
2017-Nov-10 17:30N 29°37' W 095°02'0 0.0
2017-Nov-10 17:01N 29°37' W 095°02'0 0.0
2017-Nov-10 16:30N 29°37' W 095°02'0 0.0
2017-Nov-10 16:00N 29°37' W 095°02'0 0.0
2017-Nov-10 15:30N 29°37' W 095°02'0 0.0
2017-Nov-10 15:00N 29°37' W 095°02'0 0.0
2017-Nov-10 14:30N 29°37' W 095°02'0 0.1
2017-Nov-10 14:00N 29°37' W 095°01'2 3.5
2017-Nov-10 13:30N 29°37' W 094°59'2 4.2
2017-Nov-10 13:00N 29°38' W 094°58'3 6.4
2017-Nov-10 12:30N 29°41' W 094°59'3 5.7
2017-Nov-10 11:59N 29°44' W 095°02'2 4.8
2017-Nov-10 11:29N 29°45' W 095°04'1 0.4
2017-Nov-10 08:11N 29°45' W 095°06'1 0.7
2017-Nov-10 07:11N 29°45' W 095°06'0 1.3
2017-Nov-10 07:00N 29°45' W 095°06'0 0.0
2017-Nov-10 06:25N 29°45' W 095°06'1 0.5
2017-Nov-10 03:40N 29°46' W 095°05'1 3.0
2017-Nov-10 03:29N 29°45' W 095°06'0 0.0
2017-Nov-10 03:00N 29°45' W 095°06'1 0.6
2017-Nov-10 00:43N 29°44' W 095°07'1 1.1
2017-Nov-10 00:03N 29°44' W 095°08'0 7.4
2017-Nov-09 23:59N 29°44' W 095°08'2 3.3
2017-Nov-09 23:25N 29°45' W 095°10'6 3.7
2017-Nov-09 21:50N 29°44' W 095°03'  
Track history (hours):
 
Tides and Currents Weather Stations Pressure Air Temp Water Temp Dewpoint Dewpoint Depression Visibility Wind Speed Wind Dir Waves Ship Positions

Spirit

Owner: Kirby Inland Marine, LP, Houston, TX. More information available from US FCC via Universal Licensing System and Coast Guard Vessel Documentation Center.

Last reported at 2017-Nov-19 21:40 UTC. Time now 2017-Nov-22 20:51 UTC.
Position N 29°46' W 095°05'.

Length 81 m; draft 2.6 m.

Type: . MMSI: 366996910.

Date/timePositionNaut miles runAvg speedWind from/ knotsBaromVisibWave heightAir tempDewpointWater temp
2017-Nov-19 21:40N 29°46' W 095°05'1 0.8
2017-Nov-19 20:00N 29°45' W 095°06'3 5.3
2017-Nov-19 19:28N 29°44' W 095°09'3 1.1
2017-Nov-19 16:19N 29°43' W 095°13'2 4.7
2017-Nov-19 15:53N 29°45' W 095°11'9 0.3
2017-Nov-18 13:43N 29°44' W 095°01'0 0.2
2017-Nov-18 13:24N 29°44' W 095°01'1 1.8
2017-Nov-18 12:58N 29°44' W 095°02'4 1.1
2017-Nov-18 09:23N 29°44' W 095°07'2 5.1
2017-Nov-18 08:57N 29°44' W 095°09'1 0.4
2017-Nov-18 05:44N 29°44' W 095°08'0 0.0
2017-Nov-18 05:29N 29°44' W 095°08'0 0.0
2017-Nov-18 05:00N 29°44' W 095°08'3 0.2
2017-Nov-17 17:32N 29°46' W 095°05'0 1.0
2017-Nov-17 17:30N 29°46' W 095°05'2 3.5
2017-Nov-17 17:00N 29°44' W 095°06'2 3.2
2017-Nov-17 16:21N 29°44' W 095°09'1 3.7
2017-Nov-17 16:00N 29°45' W 095°10'3 3.6
2017-Nov-17 15:15N 29°44' W 095°13'1 3.7
2017-Nov-17 15:00N 29°43' W 095°14'0 0.1
2017-Nov-17 11:16N 29°43' W 095°14'1 4.8
2017-Nov-17 11:00N 29°44' W 095°13'3 4.9
2017-Nov-17 10:28N 29°45' W 095°10'2 1.4
2017-Nov-17 08:45N 29°44' W 095°08'1 3.1
2017-Nov-17 08:21N 29°45' W 095°06'2 0.8
2017-Nov-17 05:50N 29°46' W 095°04'2 4.9
2017-Nov-17 05:29N 29°44' W 095°03'2 4.3
2017-Nov-17 04:56N 29°43' W 095°01'2 4.8
2017-Nov-17 04:30N 29°41' W 094°59'3 5.2
2017-Nov-17 04:00N 29°39' W 094°58'2 4.2
2017-Nov-17 03:30N 29°37' W 094°58'2 4.7
2017-Nov-17 03:00N 29°37' W 095°01'1 1.7
2017-Nov-17 02:30N 29°37' W 095°02'0 0.0
2017-Nov-17 02:00N 29°37' W 095°02'0 0.0
2017-Nov-17 01:30N 29°37' W 095°02'0 0.0
2017-Nov-17 01:00N 29°37' W 095°02'0 0.0
2017-Nov-17 00:30N 29°37' W 095°02'0 0.0
2017-Nov-17 00:00N 29°37' W 095°02'0 0.0
2017-Nov-16 23:30N 29°37' W 095°02'0 0.0
2017-Nov-16 23:00N 29°37' W 095°02'0 0.0
2017-Nov-16 22:30N 29°37' W 095°02'0 0.0
2017-Nov-16 22:00N 29°37' W 095°02'0 0.0
2017-Nov-16 21:30N 29°37' W 095°02'0 0.0
2017-Nov-16 21:00N 29°37' W 095°02'0 0.0
2017-Nov-16 20:30N 29°37' W 095°02'0 0.0
2017-Nov-16 20:00N 29°37' W 095°02'0 0.0
2017-Nov-16 19:30N 29°37' W 095°02'0 0.0
2017-Nov-16 19:00N 29°37' W 095°02'0 0.0
2017-Nov-16 18:30N 29°37' W 095°02'0 0.0
2017-Nov-16 18:00N 29°37' W 095°02'0 0.0
2017-Nov-16 17:29N 29°37' W 095°02'0 0.0
2017-Nov-16 17:00N 29°37' W 095°02'0 0.2
2017-Nov-16 16:30N 29°37' W 095°01'1 3.0
2017-Nov-16 16:00N 29°37' W 094°60'2 3.8
2017-Nov-16 15:30N 29°38' W 094°58'3 6.1
2017-Nov-16 15:00N 29°41' W 094°59'3 5.6
2017-Nov-16 14:30N 29°43' W 095°01'3 5.3
2017-Nov-16 13:59N 29°44' W 095°04'2 0.3
2017-Nov-16 06:55N 29°46' W 095°05'1 2.9
2017-Nov-16 06:30N 29°45' W 095°06'1 1.5
2017-Nov-16 05:58N 29°46' W 095°07'1 0.9
2017-Nov-16 04:37N 29°45' W 095°06'1 5.1
2017-Nov-16 04:26N 29°44' W 095°07'2 4.8
2017-Nov-16 04:00N 29°45' W 095°10'3 4.3
2017-Nov-16 03:23N 29°44' W 095°13'1 0.5
2017-Nov-16 01:02N 29°43' W 095°14'0 0.8
2017-Nov-16 00:58N 29°43' W 095°14'2 4.6
2017-Nov-16 00:30N 29°44' W 095°12'3 6.6
2017-Nov-16 00:00N 29°44' W 095°08'5 2.3
2017-Nov-15 21:58N 29°47' W 095°04'3 0.2
2017-Nov-15 09:27N 29°45' W 095°06'1 2.7
2017-Nov-15 09:00N 29°46' W 095°05'0 0.1
2017-Nov-15 05:46N 29°46' W 095°05'1 2.4
2017-Nov-15 05:12N 29°45' W 095°06'0 0.6
2017-Nov-15 04:56N 29°45' W 095°06'1 1.3
2017-Nov-15 04:23N 29°45' W 095°06'1 2.0
2017-Nov-15 04:00N 29°46' W 095°05'5 1.2
2017-Nov-14 23:47N 29°42' W 095°01'2 5.9
2017-Nov-14 23:30N 29°42' W 094°59'3 5.5
2017-Nov-14 23:00N 29°39' W 094°58'2 4.5
2017-Nov-14 22:30N 29°37' W 094°58'2 4.9
2017-Nov-14 22:00N 29°37' W 095°01'1 1.3
2017-Nov-14 21:30N 29°37' W 095°02'0 0.0
2017-Nov-14 21:00N 29°37' W 095°02'0 0.0
2017-Nov-14 20:30N 29°37' W 095°02'0 0.0
2017-Nov-14 20:00N 29°37' W 095°02'0 0.0
2017-Nov-14 19:30N 29°37' W 095°02'0 0.0
2017-Nov-14 19:00N 29°37' W 095°02'0 0.0
2017-Nov-14 18:27N 29°37' W 095°02'0 0.0
2017-Nov-14 18:00N 29°37' W 095°02'0 0.0
2017-Nov-14 17:30N 29°37' W 095°02'0 0.0
2017-Nov-14 17:00N 29°37' W 095°02'0 0.0
2017-Nov-14 16:30N 29°37' W 095°02'0 0.2
2017-Nov-14 16:00N 29°37' W 095°01'0 0.2
2017-Nov-14 15:30N 29°37' W 095°02'0 0.0
2017-Nov-14 15:00N 29°37' W 095°02'0 0.0
2017-Nov-14 14:30N 29°37' W 095°02'0 0.0
2017-Nov-14 14:00N 29°37' W 095°02'0 0.0
2017-Nov-14 13:30N 29°37' W 095°02'0 0.1
2017-Nov-14 13:00N 29°37' W 095°01'2 4.3
2017-Nov-14 12:30N 29°37' W 094°59'2 3.7
2017-Nov-14 12:00N 29°38' W 094°58'3 5.9
2017-Nov-14 11:30N 29°41' W 094°59'3 5.3
2017-Nov-14 11:00N 29°43' W 095°01'3 5.3
2017-Nov-14 10:30N 29°45' W 095°04'2 1.7
2017-Nov-14 09:10N 29°46' W 095°06'0 0.0
2017-Nov-14 08:57N 29°46' W 095°06'1 1.9
2017-Nov-14 08:24N 29°46' W 095°05'1 0.9
2017-Nov-14 07:21N 29°45' W 095°06'1 0.3
2017-Nov-14 05:06N 29°46' W 095°06'0 3.3
2017-Nov-14 04:59N 29°46' W 095°06'0 0.7
2017-Nov-14 04:28N 29°45' W 095°06'0 0.0
2017-Nov-14 03:59N 29°45' W 095°06'1 0.6
2017-Nov-14 03:09N 29°46' W 095°05'3 2.1
2017-Nov-14 01:57N 29°44' W 095°03'2 3.4
2017-Nov-14 01:28N 29°44' W 095°01'1 3.2
2017-Nov-14 01:00N 29°42' W 095°01'2 3.1
2017-Nov-14 00:30N 29°43' W 095°03'4 0.2
2017-Nov-13 00:26N 29°46' W 095°06'1 0.1
2017-Nov-12 19:45N 29°45' W 095°06'0 0.0
2017-Nov-12 19:27N 29°45' W 095°06'0 0.0
2017-Nov-12 18:58N 29°45' W 095°06'0 0.0
2017-Nov-12 18:22N 29°45' W 095°06'0 0.0
2017-Nov-12 17:59N 29°45' W 095°06'0 0.0
2017-Nov-12 17:29N 29°45' W 095°06'0 0.0
2017-Nov-12 17:00N 29°45' W 095°06'0 0.0
2017-Nov-12 15:59N 29°45' W 095°06'0 0.1
2017-Nov-12 14:45N 29°45' W 095°06'0 0.0
2017-Nov-12 14:29N 29°45' W 095°06'0 0.0
2017-Nov-12 13:59N 29°45' W 095°06'0 0.0
2017-Nov-12 13:30N 29°45' W 095°06'1 1.0
2017-Nov-12 12:40N 29°45' W 095°06'0 0.8
2017-Nov-12 12:21N 29°45' W 095°06'1 3.1
2017-Nov-12 11:59N 29°46' W 095°05'0 0.3
2017-Nov-12 11:20N 29°46' W 095°05'0 0.0
2017-Nov-12 10:51N 29°46' W 095°05'1 2.7
2017-Nov-12 10:23N 29°45' W 095°06'0 0.2
2017-Nov-12 09:17N 29°45' W 095°06'1 0.8
2017-Nov-12 08:12N 29°46' W 095°06'0 0.0
2017-Nov-12 07:56N 29°46' W 095°06'0 0.0
2017-Nov-12 07:19N 29°46' W 095°06'1 3.1
2017-Nov-12 06:54N 29°46' W 095°04'4 6.0
2017-Nov-12 06:17N 29°43' W 095°01'2 5.7
2017-Nov-12 05:59N 29°42' W 094°60'3 6.5
2017-Nov-12 05:30N 29°39' W 094°58'2 4.5
2017-Nov-12 05:00N 29°37' W 094°59'2 5.0
2017-Nov-12 04:30N 29°37' W 095°01'0 0.3
2017-Nov-12 04:00N 29°37' W 095°01'0 0.0
2017-Nov-12 03:30N 29°37' W 095°01'0 0.0
2017-Nov-12 03:00N 29°37' W 095°01'0 0.0
2017-Nov-12 02:30N 29°37' W 095°01'0 0.0
2017-Nov-12 02:00N 29°37' W 095°01'0 0.0
2017-Nov-12 01:30N 29°37' W 095°01'0 0.0
2017-Nov-12 01:00N 29°37' W 095°01'0 0.0
2017-Nov-12 00:30N 29°37' W 095°01'0 0.0
2017-Nov-12 00:00N 29°37' W 095°01'0 0.0
2017-Nov-11 23:30N 29°37' W 095°01'0 0.0
2017-Nov-11 23:00N 29°37' W 095°01'0 0.0
2017-Nov-11 22:30N 29°37' W 095°01'0 0.0
2017-Nov-11 22:00N 29°37' W 095°01'0 0.0
2017-Nov-11 21:30N 29°37' W 095°01'0 0.0
2017-Nov-11 21:00N 29°37' W 095°01'0 0.0
2017-Nov-11 20:30N 29°37' W 095°01'0 0.0
2017-Nov-11 20:00N 29°37' W 095°01'0 0.0
2017-Nov-11 19:30N 29°37' W 095°01'0 0.0
2017-Nov-11 19:00N 29°37' W 095°01'0 0.0
2017-Nov-11 18:30N 29°37' W 095°01'0 0.0
2017-Nov-11 18:00N 29°37' W 095°01'0 0.0
2017-Nov-11 17:30N 29°37' W 095°01'0 0.0
2017-Nov-11 17:00N 29°37' W 095°01'0 0.0
2017-Nov-11 16:30N 29°37' W 095°01'0 0.0
2017-Nov-11 16:00N 29°37' W 095°01'0 0.0
2017-Nov-11 15:30N 29°37' W 095°01'0 0.0
2017-Nov-11 15:00N 29°37' W 095°01'0 0.0
2017-Nov-11 14:30N 29°37' W 095°01'0 0.0
2017-Nov-11 14:00N 29°37' W 095°01'0 0.0
2017-Nov-11 13:31N 29°37' W 095°01'0 0.0
2017-Nov-11 13:00N 29°37' W 095°01'1 2.8
2017-Nov-11 12:30N 29°37' W 094°60'2 4.8
2017-Nov-11 12:01N 29°39' W 094°58'4 7.5
2017-Nov-11 11:30N 29°42' W 095°00'3 6.9
2017-Nov-11 11:00N 29°44' W 095°03'3 5.7
2017-Nov-11 10:27N 29°47' W 095°04'2 0.7
2017-Nov-11 08:00N 29°46' W 095°04'3 5.6
2017-Nov-11 07:26N 29°44' W 095°01'2 4.8
2017-Nov-11 06:57N 29°42' W 094°60'3 5.6
2017-Nov-11 06:30N 29°40' W 094°58'3 5.5
2017-Nov-11 06:00N 29°37' W 094°57'2 4.8
2017-Nov-11 05:30N 29°37' W 095°00'1 2.2
2017-Nov-11 05:00N 29°37' W 095°01'0 0.0
2017-Nov-11 04:30N 29°37' W 095°01'0 0.0
2017-Nov-11 04:00N 29°37' W 095°01'0 0.0
2017-Nov-11 03:30N 29°37' W 095°01'0 0.1
2017-Nov-11 03:00N 29°37' W 095°02'0 0.0
2017-Nov-11 02:30N 29°37' W 095°02'0 0.0
2017-Nov-11 02:00N 29°37' W 095°02'0 0.0
2017-Nov-11 01:30N 29°37' W 095°02'0 0.0
2017-Nov-11 01:00N 29°37' W 095°02'0 0.0
2017-Nov-11 00:30N 29°37' W 095°02'0 0.0
2017-Nov-11 00:00N 29°37' W 095°02'0 0.0
2017-Nov-10 23:30N 29°37' W 095°02'0 0.0
2017-Nov-10 23:00N 29°37' W 095°02'0 0.0
2017-Nov-10 22:30N 29°37' W 095°02'0 0.0
2017-Nov-10 21:59N 29°37' W 095°02'0 0.0
2017-Nov-10 21:31N 29°37' W 095°02'0 0.0
2017-Nov-10 21:00N 29°37' W 095°02'0 0.0
2017-Nov-10 20:30N 29°37' W 095°02'0 0.0
2017-Nov-10 20:00N 29°37' W 095°02'0 0.0
2017-Nov-10 19:30N 29°37' W 095°02'0 0.0
2017-Nov-10 19:00N 29°37' W 095°02'0 0.0
2017-Nov-10 18:30N 29°37' W 095°02'0 0.0
2017-Nov-10 18:01N 29°37' W 095°02'0 0.0
2017-Nov-10 17:30N 29°37' W 095°02'0 0.0
2017-Nov-10 17:01N 29°37' W 095°02'0 0.0
2017-Nov-10 16:30N 29°37' W 095°02'0 0.0
2017-Nov-10 16:00N 29°37' W 095°02'0 0.0
2017-Nov-10 15:30N 29°37' W 095°02'0 0.0
2017-Nov-10 15:00N 29°37' W 095°02'0 0.0
2017-Nov-10 14:30N 29°37' W 095°02'0 0.1
2017-Nov-10 14:00N 29°37' W 095°01'2 3.5
2017-Nov-10 13:30N 29°37' W 094°59'2 4.2
2017-Nov-10 13:00N 29°38' W 094°58'3 6.4
2017-Nov-10 12:30N 29°41' W 094°59'3 5.7
2017-Nov-10 11:59N 29°44' W 095°02'2 4.8
2017-Nov-10 11:29N 29°45' W 095°04'1 0.4
2017-Nov-10 08:11N 29°45' W 095°06'1 0.7
2017-Nov-10 07:11N 29°45' W 095°06'0 1.3
2017-Nov-10 07:00N 29°45' W 095°06'0 0.0
2017-Nov-10 06:25N 29°45' W 095°06'1 0.5
2017-Nov-10 03:40N 29°46' W 095°05'1 3.0
2017-Nov-10 03:29N 29°45' W 095°06'0 0.0
2017-Nov-10 03:00N 29°45' W 095°06'1 0.6
2017-Nov-10 00:43N 29°44' W 095°07'1 1.1
2017-Nov-10 00:03N 29°44' W 095°08'0 7.4
2017-Nov-09 23:59N 29°44' W 095°08'2 3.3
2017-Nov-09 23:25N 29°45' W 095°10'6 3.7
2017-Nov-09 21:50N 29°44' W 095°03'  

Dump ship's entire track history